Time,TemperatureF,DewpointF,PressureIn,WindDirection,WindDirectionDegrees,WindSpeedMPH,WindSpeedGustMPH,Humidity,HourlyPrecipIn,Conditions,Clouds,dailyrainin,SoftwareType,DateUTC
2013-06-03 00:00:00,68.8,57.8,29.90,SSW,198,3.0,3.0,68,0.00,,,0.01,Wunderground v.1.13,2013-06-03 04:00:00,
2013-06-03 00:05:00,68.6,57.6,29.90,WSW,254,3.0,3.0,68,0.00,,,0.00,Wunderground v.1.13,2013-06-03 04:05:00,
2013-06-03 00:10:00,68.4,57.0,29.90,NW,309,3.0,13.0,67,0.00,,,0.00,Wunderground v.1.13,2013-06-03 04:10:00,
2013-06-03 00:15:00,68.3,57.3,29.90,WNW,288,3.0,3.0,68,0.00,,,0.00,Wunderground v.1.13,2013-06-03 04:15:00,
2013-06-03 00:20:00,68.1,57.1,29.90,NNW,340,3.0,13.0,68,0.00,,,0.00,Wunderground v.1.13,2013-06-03 04:20:00,
2013-06-03 00:25:00,67.8,56.9,29.90,SW,219,3.0,3.0,68,0.00,,,0.00,Wunderground v.1.13,2013-06-03 04:25:00,
2013-06-03 00:30:00,67.6,56.7,29.90,WSW,244,3.0,3.0,68,0.00,,,0.00,Wunderground v.1.13,2013-06-03 04:30:00,
2013-06-03 00:35:00,67.6,57.1,29.90,West,264,2.0,13.0,69,0.00,,,0.00,Wunderground v.1.13,2013-06-03 04:35:00,
2013-06-03 00:45:00,66.9,55.6,29.90,NW,304,3.0,13.0,67,0.00,,,0.00,Wunderground v.1.13,2013-06-03 04:45:00,
2013-06-03 00:50:00,66.8,55.5,29.90,West,280,4.0,4.0,67,0.00,,,0.00,Wunderground v.1.13,2013-06-03 04:50:00,
2013-06-03 00:55:00,66.6,55.3,29.90,West,280,4.0,4.0,67,0.00,,,0.00,Wunderground v.1.13,2013-06-03 04:55:00,
2013-06-03 01:00:00,66.4,55.1,29.90,SW,216,4.0,4.0,67,0.00,,,0.00,Wunderground v.1.13,2013-06-03 05:00:00,
2013-06-03 01:05:00,66.3,55.4,29.90,WSW,237,2.0,13.0,68,0.00,,,0.00,Wunderground v.1.13,2013-06-03 05:05:00,
2013-06-03 01:15:00,66.1,55.6,29.91,West,265,2.0,2.0,69,0.00,,,0.00,Wunderground v.1.13,2013-06-03 05:15:00,
2013-06-03 01:20:00,66.0,55.5,29.91,WSW,257,1.0,13.0,69,0.00,,,0.00,Wunderground v.1.13,2013-06-03 05:20:00,
2013-06-03 01:25:00,66.0,55.5,29.91,West,272,1.0,13.0,69,0.00,,,0.00,Wunderground v.1.13,2013-06-03 05:25:00,
2013-06-03 01:30:00,66.0,55.5,29.91,West,274,2.0,2.0,69,0.00,,,0.00,Wunderground v.1.13,2013-06-03 05:30:00,
2013-06-03 01:35:00,66.0,54.7,29.91,SW,220,1.0,13.0,67,0.00,,,0.00,Wunderground v.1.13,2013-06-03 05:35:00,
2013-06-03 01:40:00,66.1,54.4,29.91,ENE,64,1.0,13.0,66,0.00,,,0.00,Wunderground v.1.13,2013-06-03 05:40:00,
2013-06-03 01:50:00,65.8,54.1,29.91,West,278,2.0,13.0,66,0.00,,,0.00,Wunderground v.1.13,2013-06-03 05:50:00,
2013-06-03 01:55:00,65.8,54.9,29.91,WNW,288,2.0,13.0,68,0.00,,,0.00,Wunderground v.1.13,2013-06-03 05:55:00,
2013-06-03 02:00:00,65.8,54.5,29.91,WSW,253,2.0,13.0,67,0.00,,,0.00,Wunderground v.1.13,2013-06-03 06:00:00,
2013-06-03 02:05:00,65.6,54.3,29.91,North,0,2.0,2.0,67,0.00,,,0.00,Wunderground v.1.13,2013-06-03 06:05:00,
2013-06-03 02:10:00,65.8,54.5,29.91,NNE,21,2.0,13.0,67,0.00,,,0.00,Wunderground v.1.13,2013-06-03 06:10:00,
2013-06-03 02:20:00,65.5,54.2,29.91,SSW,203,3.0,3.0,67,0.00,,,0.00,Wunderground v.1.13,2013-06-03 06:20:00,
2013-06-03 02:25:00,65.6,54.3,29.91,SSW,209,2.0,13.0,67,0.00,,,0.00,Wunderground v.1.13,2013-06-03 06:25:00,
2013-06-03 02:30:00,65.6,54.3,29.92,West,272,2.0,13.0,67,0.00,,,0.00,Wunderground v.1.13,2013-06-03 06:30:00,
2013-06-03 02:35:00,65.5,53.8,29.92,West,263,2.0,13.0,66,0.00,,,0.00,Wunderground v.1.13,2013-06-03 06:35:00,
2013-06-03 02:40:00,65.0,53.4,29.92,WSW,253,3.0,13.0,66,0.00,,,0.00,Wunderground v.1.13,2013-06-03 06:40:00,
2013-06-03 02:50:00,64.5,53.3,29.92,WSW,258,5.0,5.0,67,0.00,,,0.00,Wunderground v.1.13,2013-06-03 06:50:00,
2013-06-03 02:55:00,64.2,53.0,29.92,West,267,3.0,3.0,67,0.00,,,0.00,Wunderground v.1.13,2013-06-03 06:55:00,
2013-06-03 03:00:00,64.2,53.4,29.93,WSW,254,2.0,13.0,68,0.00,,,0.00,Wunderground v.1.13,2013-06-03 07:00:00,
2013-06-03 03:05:00,64.2,53.4,29.93,NW,312,2.0,13.0,68,0.00,,,0.00,Wunderground v.1.13,2013-06-03 07:05:00,
2013-06-03 03:10:00,64.0,53.2,29.93,WNW,299,2.0,2.0,68,0.00,,,0.00,Wunderground v.1.13,2013-06-03 07:10:00,
2013-06-03 03:15:00,63.9,53.1,29.93,WSW,250,2.0,2.0,68,0.00,,,0.00,Wunderground v.1.13,2013-06-03 07:15:00,
2013-06-03 03:25:00,63.9,53.1,29.93,WSW,250,2.0,2.0,68,0.00,,,0.00,Wunderground v.1.13,2013-06-03 07:25:00,
2013-06-03 03:30:00,63.7,52.9,29.93,West,274,2.0,13.0,68,0.00,,,0.00,Wunderground v.1.13,2013-06-03 07:30:00,
2013-06-03 03:35:00,63.5,52.7,29.93,West,264,3.0,13.0,68,0.00,,,0.00,Wunderground v.1.13,2013-06-03 07:35:00,
2013-06-03 03:40:00,63.4,52.7,29.93,NW,308,3.0,13.0,68,0.00,,,0.00,Wunderground v.1.13,2013-06-03 07:40:00,
2013-06-03 03:45:00,63.2,52.9,29.93,West,278,4.0,4.0,69,0.00,,,0.00,Wunderground v.1.13,2013-06-03 07:45:00,
2013-06-03 03:50:00,63.2,52.9,29.93,West,268,3.0,3.0,69,0.00,,,0.00,Wunderground v.1.13,2013-06-03 07:50:00,
2013-06-03 03:55:00,63.2,52.9,29.93,WNW,298,3.0,3.0,69,0.00,,,0.00,Wunderground v.1.13,2013-06-03 07:55:00,
2013-06-03 04:00:00,63.2,52.9,29.94,West,275,2.0,2.0,69,0.00,,,0.00,Wunderground v.1.13,2013-06-03 08:00:00,
2013-06-03 04:05:00,63.1,52.8,29.94,SW,216,2.0,2.0,69,0.00,,,0.00,Wunderground v.1.13,2013-06-03 08:05:00,
2013-06-03 04:10:00,63.1,52.8,29.94,West,263,2.0,13.0,69,0.00,,,0.00,Wunderground v.1.13,2013-06-03 08:10:00,
2013-06-03 04:15:00,62.9,52.6,29.94,WNW,288,2.0,2.0,69,0.00,,,0.00,Wunderground v.1.13,2013-06-03 08:15:00,
2013-06-03 04:25:00,62.4,52.1,29.94,West,272,2.0,13.0,69,0.00,,,0.00,Wunderground v.1.13,2013-06-03 08:25:00,
2013-06-03 04:30:00,62.3,52.0,29.94,West,261,2.0,2.0,69,0.00,,,0.00,Wunderground v.1.13,2013-06-03 08:30:00,
2013-06-03 04:35:00,62.0,50.9,29.94,WSW,241,1.0,13.0,67,0.00,,,0.00,Wunderground v.1.13,2013-06-03 08:35:00,
2013-06-03 04:40:00,61.8,49.9,29.94,WNW,284,1.0,13.0,65,0.00,,,0.00,Wunderground v.1.13,2013-06-03 08:40:00,
2013-06-03 04:45:00,61.5,50.0,29.95,WNW,282,1.0,13.0,66,0.00,,,0.00,Wunderground v.1.13,2013-06-03 08:45:00,
2013-06-03 04:50:00,61.3,50.2,29.95,WSW,244,1.0,13.0,67,0.00,,,0.00,Wunderground v.1.13,2013-06-03 08:50:00,
2013-06-03 05:00:00,60.9,49.9,29.95,West,280,2.0,2.0,67,0.00,,,0.00,Wunderground v.1.13,2013-06-03 09:00:00,
2013-06-03 05:05:00,60.7,50.1,29.95,SW,220,3.0,13.0,68,0.00,,,0.00,Wunderground v.1.13,2013-06-03 09:05:00,
2013-06-03 05:10:00,60.4,49.0,29.95,SSW,195,3.0,3.0,66,0.00,,,0.00,Wunderground v.1.13,2013-06-03 09:10:00,
2013-06-03 05:15:00,60.2,48.8,29.95,West,268,2.0,13.0,66,0.00,,,0.00,Wunderground v.1.13,2013-06-03 09:15:00,
2013-06-03 05:20:00,60.1,48.7,29.96,SSW,209,2.0,13.0,66,0.00,,,0.00,Wunderground v.1.13,2013-06-03 09:20:00,
2013-06-03 05:30:00,59.9,48.9,29.96,West,263,2.0,13.0,67,0.00,,,0.00,Wunderground v.1.13,2013-06-03 09:30:00,
2013-06-03 05:35:00,59.6,48.2,29.96,North,359,3.0,13.0,66,0.00,,,0.00,Wunderground v.1.13,2013-06-03 09:35:00,
2013-06-03 05:40:00,59.5,48.1,29.96,WNW,302,3.0,13.0,66,0.00,,,0.00,Wunderground v.1.13,2013-06-03 09:40:00,
2013-06-03 05:45:00,59.3,47.9,29.96,West,271,3.0,13.0,66,0.00,,,0.00,Wunderground v.1.13,2013-06-03 09:45:00,
2013-06-03 05:50:00,59.2,47.8,29.96,WSW,257,3.0,3.0,66,0.00,,,0.00,Wunderground v.1.13,2013-06-03 09:50:00,
2013-06-03 06:00:00,59.0,47.7,29.96,WSW,254,2.0,2.0,66,0.00,,,0.00,Wunderground v.1.13,2013-06-03 10:00:00,
2013-06-03 06:05:00,58.9,47.6,29.96,WSW,248,2.0,13.0,66,0.00,,,0.00,Wunderground v.1.13,2013-06-03 10:05:00,
2013-06-03 06:10:00,58.9,47.2,29.96,SW,215,2.0,2.0,65,0.00,,,0.00,Wunderground v.1.13,2013-06-03 10:10:00,
2013-06-03 06:15:00,58.7,47.4,29.97,WNW,291,2.0,2.0,66,0.00,,,0.00,Wunderground v.1.13,2013-06-03 10:15:00,
2013-06-03 06:20:00,58.7,47.4,29.97,NW,316,3.0,3.0,66,0.00,,,0.00,Wunderground v.1.13,2013-06-03 10:20:00,
2013-06-03 06:25:00,58.6,47.3,29.97,WSW,254,2.0,2.0,66,0.00,,,0.00,Wunderground v.1.13,2013-06-03 10:25:00,
2013-06-03 06:35:00,58.6,47.7,29.97,WSW,247,2.0,13.0,67,0.00,,,0.00,Wunderground v.1.13,2013-06-03 10:35:00,
2013-06-03 06:40:00,58.6,47.3,29.97,WSW,253,2.0,13.0,66,0.00,,,0.00,Wunderground v.1.13,2013-06-03 10:40:00,
2013-06-03 06:45:00,58.6,47.7,29.98,WSW,241,2.0,13.0,67,0.00,,,0.00,Wunderground v.1.13,2013-06-03 10:45:00,
2013-06-03 06:50:00,58.4,47.5,29.98,WSW,251,2.0,2.0,67,0.00,,,0.00,Wunderground v.1.13,2013-06-03 10:50:00,
2013-06-03 06:55:00,58.6,48.1,29.98,WSW,246,2.0,2.0,68,0.00,,,0.00,Wunderground v.1.13,2013-06-03 10:55:00,
2013-06-03 07:05:00,58.4,47.5,29.98,SE,138,1.0,13.0,67,0.00,,,0.00,Wunderground v.1.13,2013-06-03 11:05:00,
2013-06-03 07:10:00,58.4,47.5,29.98,SE,131,1.0,1.0,67,0.00,,,0.00,Wunderground v.1.13,2013-06-03 11:10:00,
2013-06-03 07:15:00,58.4,47.1,29.98,WSW,250,1.0,1.0,66,0.00,,,0.00,Wunderground v.1.13,2013-06-03 11:15:00,
2013-06-03 07:20:00,58.4,47.1,29.99,NW,319,1.0,13.0,66,0.00,,,0.00,Wunderground v.1.13,2013-06-03 11:20:00,
2013-06-03 07:25:00,58.6,47.7,29.99,SW,223,1.0,13.0,67,0.00,,,0.00,Wunderground v.1.13,2013-06-03 11:25:00,
2013-06-03 07:30:00,58.6,47.7,29.99,SW,220,1.0,1.0,67,0.00,,,0.00,Wunderground v.1.13,2013-06-03 11:30:00,
2013-06-03 07:35:00,58.7,47.4,29.99,SSW,193,0.0,13.0,66,0.00,,,0.00,Wunderground v.1.13,2013-06-03 11:35:00,
2013-06-03 07:40:00,58.7,47.0,29.99,SW,217,2.0,13.0,65,0.00,,,0.00,Wunderground v.1.13,2013-06-03 11:40:00,
2013-06-03 07:45:00,58.9,47.2,29.99,WSW,244,2.0,2.0,65,0.00,,,0.00,Wunderground v.1.13,2013-06-03 11:45:00,
2013-06-03 07:50:00,59.0,47.2,29.99,WNW,287,1.0,13.0,65,0.00,,,0.00,Wunderground v.1.13,2013-06-03 11:50:00,
2013-06-03 07:55:00,59.3,47.5,29.99,SW,226,1.0,1.0,65,0.00,,,0.00,Wunderground v.1.13,2013-06-03 11:55:00,
2013-06-03 08:00:00,59.5,47.7,29.99,South,184,0.0,13.0,65,0.00,,,0.00,Wunderground v.1.13,2013-06-03 12:00:00,
2013-06-03 08:10:00,60.4,47.7,29.99,SSW,209,0.0,13.0,63,0.00,,,0.00,Wunderground v.1.13,2013-06-03 12:10:00,
2013-06-03 08:15:00,60.7,48.0,29.99,SSW,193,0.0,13.0,63,0.00,,,0.00,Wunderground v.1.13,2013-06-03 12:15:00,
2013-06-03 08:20:00,61.2,48.1,29.99,WSW,239,0.0,13.0,62,0.00,,,0.00,Wunderground v.1.13,2013-06-03 12:20:00,
2013-06-03 08:25:00,61.8,48.2,29.99,South,189,0.0,13.0,61,0.00,,,0.00,Wunderground v.1.13,2013-06-03 12:25:00,
2013-06-03 08:30:00,62.3,47.8,29.99,WSW,240,0.0,13.0,59,0.00,,,0.00,Wunderground v.1.13,2013-06-03 12:30:00,
2013-06-03 08:40:00,62.6,47.6,29.99,WSW,239,0.0,13.0,58,0.00,,,0.00,Wunderground v.1.13,2013-06-03 12:40:00,
2013-06-03 08:45:00,62.9,47.9,29.99,SSW,198,0.0,13.0,58,0.00,,,0.00,Wunderground v.1.13,2013-06-03 12:45:00,
2013-06-03 08:50:00,62.9,47.4,29.99,SSW,200,0.0,13.0,57,0.00,,,0.00,Wunderground v.1.13,2013-06-03 12:50:00,
2013-06-03 08:55:00,63.1,47.6,29.99,SSW,199,0.0,13.0,57,0.00,,,0.00,Wunderground v.1.13,2013-06-03 12:55:00,
2013-06-03 09:00:00,63.4,47.9,29.99,South,171,0.0,13.0,57,0.00,,,0.00,Wunderground v.1.13,2013-06-03 13:00:00,
2013-06-03 09:05:00,64.0,47.5,30.00,SSE,165,0.0,13.0,55,0.00,,,0.00,Wunderground v.1.13,2013-06-03 13:05:00,
2013-06-03 09:10:00,64.5,48.0,30.00,SW,220,0.0,13.0,55,0.00,,,0.00,Wunderground v.1.13,2013-06-03 13:10:00,
2013-06-03 09:15:00,65.0,47.9,30.00,WSW,247,0.0,13.0,54,0.00,,,0.00,Wunderground v.1.13,2013-06-03 13:15:00,
2013-06-03 09:20:00,65.5,47.4,30.00,South,169,1.0,13.0,52,0.00,,,0.00,Wunderground v.1.13,2013-06-03 13:20:00,
2013-06-03 09:30:00,67.1,47.3,30.00,SSW,196,0.0,13.0,49,0.00,,,0.00,Wunderground v.1.13,2013-06-03 13:30:00,
2013-06-03 09:35:00,67.3,46.9,30.00,SSW,206,0.0,13.0,48,0.00,,,0.00,Wunderground v.1.13,2013-06-03 13:35:00,
2013-06-03 09:40:00,67.3,46.4,30.00,SW,216,1.0,1.0,47,0.00,,,0.00,Wunderground v.1.13,2013-06-03 13:40:00,
2013-06-03 09:45:00,67.1,46.7,30.00,SW,227,1.0,1.0,48,0.00,,,0.00,Wunderground v.1.13,2013-06-03 13:45:00,
2013-06-03 09:50:00,67.3,46.9,30.00,SW,233,1.0,1.0,48,0.00,,,0.00,Wunderground v.1.13,2013-06-03 13:50:00,
2013-06-03 09:55:00,67.3,46.9,30.00,WSW,248,1.0,1.0,48,0.00,,,0.00,Wunderground v.1.13,2013-06-03 13:55:00,
2013-06-03 10:00:00,67.4,47.0,30.00,SW,234,1.0,13.0,48,0.00,,,0.00,Wunderground v.1.13,2013-06-03 14:00:00,
2013-06-03 10:05:00,67.4,47.0,30.00,West,268,0.0,13.0,48,0.00,,,0.00,Wunderground v.1.13,2013-06-03 14:05:00,
2013-06-03 10:15:00,67.8,47.4,30.00,South,172,0.0,13.0,48,0.00,,,0.00,Wunderground v.1.13,2013-06-03 14:15:00,
2013-06-03 10:20:00,68.1,47.7,30.00,South,185,1.0,13.0,48,0.00,,,0.00,Wunderground v.1.13,2013-06-03 14:20:00,
2013-06-03 10:25:00,68.9,48.4,30.00,WNW,282,1.0,13.0,48,0.00,,,0.00,Wunderground v.1.13,2013-06-03 14:25:00,
2013-06-03 10:30:00,70.3,48.5,30.00,SSE,168,1.0,13.0,46,0.00,,,0.00,Wunderground v.1.13,2013-06-03 14:30:00,
2013-06-03 10:35:00,71.1,48.1,30.00,South,175,1.0,1.0,44,0.00,,,0.00,Wunderground v.1.13,2013-06-03 14:35:00,
2013-06-03 10:40:00,70.8,46.6,30.00,SSE,162,1.0,1.0,42,0.00,,,0.00,Wunderground v.1.13,2013-06-03 14:40:00,
2013-06-03 10:50:00,70.8,47.8,30.00,NW,304,1.0,13.0,44,0.00,,,0.00,Wunderground v.1.13,2013-06-03 14:50:00,
2013-06-03 10:55:00,70.4,47.4,30.00,West,271,1.0,13.0,44,0.00,,,0.00,Wunderground v.1.13,2013-06-03 14:55:00,
2013-06-03 11:00:00,70.9,47.3,30.00,SSW,203,1.0,13.0,43,0.00,,,0.00,Wunderground v.1.13,2013-06-03 15:00:00,
2013-06-03 11:05:00,72.0,48.3,30.01,WSW,241,1.0,1.0,43,0.00,,,0.00,Wunderground v.1.13,2013-06-03 15:05:00,
2013-06-03 11:10:00,72.5,48.7,30.01,West,260,0.0,13.0,43,0.00,,,0.00,Wunderground v.1.13,2013-06-03 15:10:00,
2013-06-03 11:15:00,72.8,47.1,30.01,SSE,147,0.0,13.0,40,0.00,,,0.00,Wunderground v.1.13,2013-06-03 15:15:00,
2013-06-03 11:20:00,73.5,46.3,30.01,SE,137,1.0,13.0,38,0.00,,,0.00,Wunderground v.1.13,2013-06-03 15:20:00,
2013-06-03 11:25:00,73.9,48.1,30.01,WNW,295,1.0,13.0,40,0.00,,,0.00,Wunderground v.1.13,2013-06-03 15:25:00,
2013-06-03 11:30:00,73.9,46.7,30.01,North,0,2.0,13.0,38,0.00,,,0.00,Wunderground v.1.13,2013-06-03 15:30:00,
2013-06-03 11:35:00,73.7,46.5,30.01,WNW,288,2.0,2.0,38,0.00,,,0.00,Wunderground v.1.13,2013-06-03 15:35:00,
2013-06-03 11:40:00,73.3,48.8,30.01,SE,141,2.0,13.0,42,0.00,,,0.00,Wunderground v.1.13,2013-06-03 15:40:00,
2013-06-03 11:45:00,73.3,48.8,30.01,SSE,151,1.0,1.0,42,0.00,,,0.00,Wunderground v.1.13,2013-06-03 15:45:00,
2013-06-03 11:50:00,73.3,48.8,30.01,SSE,160,1.0,13.0,42,0.00,,,0.00,Wunderground v.1.13,2013-06-03 15:50:00,
2013-06-03 11:55:00,73.5,48.4,30.01,SW,216,1.0,13.0,41,0.00,,,0.00,Wunderground v.1.13,2013-06-03 15:55:00,
2013-06-03 12:00:00,72.8,47.7,30.02,SE,136,2.0,2.0,41,0.00,,,0.00,Wunderground v.1.13,2013-06-03 16:00:00,
2013-06-03 12:05:00,73.0,49.2,30.02,SSE,158,2.0,2.0,43,0.00,,,0.00,Wunderground v.1.13,2013-06-03 16:05:00,
2013-06-03 12:10:00,72.8,48.4,30.02,SSW,213,1.0,13.0,42,0.00,,,0.00,Wunderground v.1.13,2013-06-03 16:10:00,
2013-06-03 12:15:00,73.2,48.1,30.02,SSE,162,1.0,1.0,41,0.00,,,0.00,Wunderground v.1.13,2013-06-03 16:15:00,
2013-06-03 12:25:00,74.9,47.6,30.02,SSE,148,1.0,13.0,38,0.00,,,0.00,Wunderground v.1.13,2013-06-03 16:25:00,
2013-06-03 12:30:00,75.3,47.2,30.02,SSW,206,2.0,13.0,37,0.00,,,0.00,Wunderground v.1.13,2013-06-03 16:30:00,
2013-06-03 12:35:00,74.7,48.1,30.02,NW,318,2.0,13.0,39,0.00,,,0.00,Wunderground v.1.13,2013-06-03 16:35:00,
2013-06-03 12:40:00,74.9,48.9,30.02,SE,140,1.0,13.0,40,0.00,,,0.00,Wunderground v.1.13,2013-06-03 16:40:00,
2013-06-03 12:45:00,74.6,48.7,30.02,SE,143,1.0,13.0,40,0.00,,,0.00,Wunderground v.1.13,2013-06-03 16:45:00,
2013-06-03 12:55:00,73.2,48.7,30.02,SSE,148,2.0,2.0,42,0.00,,,0.00,Wunderground v.1.13,2013-06-03 16:55:00,
2013-06-03 13:00:00,73.0,48.5,30.02,South,189,2.0,2.0,42,0.00,,,0.00,Wunderground v.1.13,2013-06-03 17:00:00,
2013-06-03 13:05:00,72.5,47.5,30.02,SE,145,2.0,2.0,41,0.00,,,0.00,Wunderground v.1.13,2013-06-03 17:05:00,
2013-06-03 13:10:00,72.1,49.0,30.02,SE,140,1.0,1.0,44,0.00,,,0.00,Wunderground v.1.13,2013-06-03 17:10:00,
2013-06-03 13:15:00,72.0,47.6,30.02,SE,143,1.0,1.0,42,0.00,,,0.00,Wunderground v.1.13,2013-06-03 17:15:00,
2013-06-03 13:20:00,72.0,48.3,30.02,SW,234,1.0,13.0,43,0.00,,,0.00,Wunderground v.1.13,2013-06-03 17:20:00,
2013-06-03 13:25:00,72.0,48.3,30.02,South,182,1.0,1.0,43,0.00,,,0.00,Wunderground v.1.13,2013-06-03 17:25:00,
2013-06-03 13:30:00,72.0,48.9,30.01,SW,222,1.0,13.0,44,0.00,,,0.00,Wunderground v.1.13,2013-06-03 17:30:00,
2013-06-03 13:35:00,72.0,48.3,30.01,SSE,151,1.0,1.0,43,0.00,,,0.00,Wunderground v.1.13,2013-06-03 17:35:00,
2013-06-03 13:40:00,72.3,50.4,30.01,SE,138,1.0,13.0,46,0.00,,,0.00,Wunderground v.1.13,2013-06-03 17:40:00,
2013-06-03 13:45:00,72.3,47.9,30.00,South,175,1.0,1.0,42,0.00,,,0.00,Wunderground v.1.13,2013-06-03 17:45:00,
2013-06-03 13:50:00,73.2,47.4,30.00,SE,145,1.0,13.0,40,0.00,,,0.00,Wunderground v.1.13,2013-06-03 17:50:00,
2013-06-03 14:00:00,75.3,47.9,30.00,WSW,244,1.0,13.0,38,0.00,,,0.00,Wunderground v.1.13,2013-06-03 18:00:00,
2013-06-03 14:05:00,75.8,49.1,30.00,SE,144,1.0,13.0,39,0.00,,,0.00,Wunderground v.1.13,2013-06-03 18:05:00,
2013-06-03 14:10:00,75.8,48.4,30.00,South,189,1.0,1.0,38,0.00,,,0.00,Wunderground v.1.13,2013-06-03 18:10:00,
2013-06-03 14:15:00,76.3,48.8,29.99,SSW,203,1.0,1.0,38,0.00,,,0.00,Wunderground v.1.13,2013-06-03 18:15:00,
2013-06-03 14:20:00,76.3,48.8,29.99,SE,140,1.0,13.0,38,0.00,,,0.00,Wunderground v.1.13,2013-06-03 18:20:00,
2013-06-03 14:30:00,77.2,49.6,29.99,WNW,294,1.0,13.0,38,0.00,,,0.00,Wunderground v.1.13,2013-06-03 18:30:00,
2013-06-03 14:35:00,77.4,47.6,29.98,West,268,1.0,13.0,35,0.00,,,0.00,Wunderground v.1.13,2013-06-03 18:35:00,
2013-06-03 14:40:00,76.8,47.8,29.98,North,6,2.0,13.0,36,0.00,,,0.00,Wunderground v.1.13,2013-06-03 18:40:00,
2013-06-03 14:45:00,76.8,49.3,29.98,NW,319,2.0,13.0,38,0.00,,,0.00,Wunderground v.1.13,2013-06-03 18:45:00,
2013-06-03 14:50:00,76.5,47.6,29.98,SW,217,2.0,13.0,36,0.00,,,0.00,Wunderground v.1.13,2013-06-03 18:50:00,
2013-06-03 14:55:00,75.8,48.4,29.98,SSE,158,2.0,2.0,38,0.00,,,0.00,Wunderground v.1.13,2013-06-03 18:55:00,
2013-06-03 15:00:00,75.1,47.8,29.97,SE,141,2.0,13.0,38,0.00,,,0.00,Wunderground v.1.13,2013-06-03 19:00:00,
2013-06-03 15:05:00,75.4,48.7,29.97,SE,137,2.0,2.0,39,0.00,,,0.00,Wunderground v.1.13,2013-06-03 19:05:00,
2013-06-03 15:10:00,75.4,48.0,29.97,SE,138,1.0,13.0,38,0.00,,,0.00,Wunderground v.1.13,2013-06-03 19:10:00,
2013-06-03 15:15:00,75.6,48.9,29.97,SE,137,1.0,13.0,39,0.00,,,0.00,Wunderground v.1.13,2013-06-03 19:15:00,
2013-06-03 15:20:00,75.4,47.3,29.97,South,186,1.0,13.0,37,0.00,,,0.00,Wunderground v.1.13,2013-06-03 19:20:00,
2013-06-03 15:25:00,75.1,47.8,29.97,NW,305,2.0,13.0,38,0.00,,,0.00,Wunderground v.1.13,2013-06-03 19:25:00,
2013-06-03 15:35:00,73.3,48.2,29.97,WNW,301,2.0,13.0,41,0.00,,,0.00,Wunderground v.1.13,2013-06-03 19:35:00,
2013-06-03 15:40:00,73.2,48.1,29.97,WSW,246,1.0,13.0,41,0.00,,,0.00,Wunderground v.1.13,2013-06-03 19:40:00,
2013-06-03 15:45:00,73.2,47.4,29.97,SW,224,1.0,1.0,40,0.00,,,0.00,Wunderground v.1.13,2013-06-03 19:45:00,
2013-06-03 15:50:00,73.5,47.0,29.97,WNW,294,1.0,1.0,39,0.00,,,0.00,Wunderground v.1.13,2013-06-03 19:50:00,
2013-06-03 15:55:00,73.9,48.1,29.97,NW,319,1.0,1.0,40,0.00,,,0.00,Wunderground v.1.13,2013-06-03 19:55:00,
2013-06-03 16:05:00,74.9,48.3,29.96,SSE,162,1.0,1.0,39,0.00,,,0.00,Wunderground v.1.13,2013-06-03 20:05:00,
2013-06-03 16:10:00,75.6,47.5,29.96,SSE,162,0.0,13.0,37,0.00,,,0.00,Wunderground v.1.13,2013-06-03 20:10:00,
2013-06-03 16:15:00,75.8,46.2,29.96,SSW,200,0.0,13.0,35,0.00,,,0.00,Wunderground v.1.13,2013-06-03 20:15:00,
2013-06-03 16:20:00,75.6,46.8,29.96,SSW,199,0.0,13.0,36,0.00,,,0.00,Wunderground v.1.13,2013-06-03 20:20:00,
2013-06-03 16:25:00,75.4,45.8,29.96,SE,131,1.0,1.0,35,0.00,,,0.00,Wunderground v.1.13,2013-06-03 20:25:00,
2013-06-03 16:30:00,75.8,48.4,29.96,SE,141,1.0,1.0,38,0.00,,,0.00,Wunderground v.1.13,2013-06-03 20:30:00,
2013-06-03 16:40:00,75.3,47.2,29.96,SSE,148,1.0,1.0,37,0.00,,,0.00,Wunderground v.1.13,2013-06-03 20:40:00,
2013-06-03 16:45:00,75.3,47.9,29.96,SW,219,0.0,13.0,38,0.00,,,0.00,Wunderground v.1.13,2013-06-03 20:45:00,
2013-06-03 16:50:00,74.6,49.3,29.96,South,189,1.0,13.0,41,0.00,,,0.00,Wunderground v.1.13,2013-06-03 20:50:00,
2013-06-03 16:55:00,73.9,50.0,29.96,WNW,296,1.0,1.0,43,0.00,,,0.00,Wunderground v.1.13,2013-06-03 20:55:00,
2013-06-03 17:00:00,73.2,49.4,29.96,West,263,1.0,13.0,43,0.00,,,0.00,Wunderground v.1.13,2013-06-03 21:00:00,
2013-06-03 17:05:00,72.7,48.3,29.96,WNW,302,1.0,1.0,42,0.00,,,0.00,Wunderground v.1.13,2013-06-03 21:05:00,
2013-06-03 17:10:00,72.3,49.2,29.96,WSW,239,1.0,1.0,44,0.00,,,0.00,Wunderground v.1.13,2013-06-03 21:10:00,
2013-06-03 17:15:00,71.8,49.3,29.96,South,185,1.0,13.0,45,0.00,,,0.00,Wunderground v.1.13,2013-06-03 21:15:00,
2013-06-03 17:25:00,71.8,50.5,29.96,NW,320,2.0,2.0,47,0.00,,,0.00,Wunderground v.1.13,2013-06-03 21:25:00,
2013-06-03 17:30:00,72.0,48.9,29.96,NW,312,2.0,2.0,44,0.00,,,0.00,Wunderground v.1.13,2013-06-03 21:30:00,
2013-06-03 17:40:00,71.6,50.3,29.96,WNW,282,1.0,13.0,47,0.00,,,0.00,Wunderground v.1.13,2013-06-03 21:40:00,
2013-06-03 17:45:00,71.5,50.2,29.96,WNW,288,1.0,13.0,47,0.00,,,0.00,Wunderground v.1.13,2013-06-03 21:45:00,
2013-06-03 17:50:00,71.5,49.0,29.96,SW,223,1.0,13.0,45,0.00,,,0.00,Wunderground v.1.13,2013-06-03 21:50:00,
2013-06-03 17:55:00,71.6,49.7,29.96,SW,224,1.0,1.0,46,0.00,,,0.00,Wunderground v.1.13,2013-06-03 21:55:00,
2013-06-03 18:00:00,72.0,50.1,29.96,WSW,240,1.0,13.0,46,0.00,,,0.00,Wunderground v.1.13,2013-06-03 22:00:00,
2013-06-03 18:05:00,71.8,49.9,29.96,West,274,1.0,13.0,46,0.00,,,0.00,Wunderground v.1.13,2013-06-03 22:05:00,
2013-06-03 18:15:00,71.1,50.4,29.96,WSW,244,2.0,2.0,48,0.00,,,0.00,Wunderground v.1.13,2013-06-03 22:15:00,
2013-06-03 18:20:00,71.1,49.8,29.96,SW,230,1.0,1.0,47,0.00,,,0.00,Wunderground v.1.13,2013-06-03 22:20:00,
2013-06-03 18:25:00,70.9,49.7,29.96,West,260,1.0,13.0,47,0.00,,,0.00,Wunderground v.1.13,2013-06-03 22:25:00,
2013-06-03 18:30:00,71.1,51.0,29.96,West,274,2.0,2.0,49,0.00,,,0.00,Wunderground v.1.13,2013-06-03 22:30:00,
2013-06-03 18:35:00,71.3,49.4,29.96,WSW,250,1.0,13.0,46,0.00,,,0.00,Wunderground v.1.13,2013-06-03 22:35:00,
2013-06-03 18:45:00,71.8,49.9,29.96,WNW,285,2.0,13.0,46,0.00,,,0.00,Wunderground v.1.13,2013-06-03 22:45:00,
2013-06-03 18:50:00,72.0,50.7,29.96,West,274,1.0,13.0,47,0.00,,,0.00,Wunderground v.1.13,2013-06-03 22:50:00,
2013-06-03 18:55:00,72.0,50.1,29.96,WSW,258,2.0,13.0,46,0.00,,,0.00,Wunderground v.1.13,2013-06-03 22:55:00,
2013-06-03 19:00:00,71.3,49.4,29.96,WNW,288,3.0,3.0,46,0.00,,,0.00,Wunderground v.1.13,2013-06-03 23:00:00,
2013-06-03 19:05:00,70.9,49.7,29.96,WNW,289,3.0,3.0,47,0.00,,,0.00,Wunderground v.1.13,2013-06-03 23:05:00,
2013-06-03 19:10:00,70.6,50.0,29.96,SW,232,2.0,2.0,48,0.00,,,0.00,Wunderground v.1.13,2013-06-03 23:10:00,
2013-06-03 19:15:00,70.4,49.8,29.97,West,260,1.0,13.0,48,0.00,,,0.00,Wunderground v.1.13,2013-06-03 23:15:00,
2013-06-03 19:20:00,69.9,49.3,29.97,West,264,2.0,2.0,48,0.00,,,0.00,Wunderground v.1.13,2013-06-03 23:20:00,
2013-06-03 19:30:00,69.3,49.3,29.97,West,275,2.0,13.0,49,0.00,,,0.00,Wunderground v.1.13,2013-06-03 23:30:00,
2013-06-03 19:35:00,68.9,50.0,29.98,WNW,285,2.0,13.0,51,0.00,,,0.00,Wunderground v.1.13,2013-06-03 23:35:00,
2013-06-03 19:40:00,68.8,50.5,29.98,NW,323,2.0,2.0,52,0.00,,,0.00,Wunderground v.1.13,2013-06-03 23:40:00,
2013-06-03 19:45:00,68.9,50.0,29.99,West,263,2.0,2.0,51,0.00,,,0.00,Wunderground v.1.13,2013-06-03 23:45:00,
2013-06-03 19:50:00,69.1,49.7,29.99,WSW,250,2.0,13.0,50,0.00,,,0.00,Wunderground v.1.13,2013-06-03 23:50:00,
2013-06-03 19:55:00,69.1,49.1,29.99,West,268,3.0,3.0,49,0.00,,,0.00,Wunderground v.1.13,2013-06-03 23:55:00,
2013-06-03 20:00:00,68.9,50.0,29.99,West,280,3.0,13.0,51,0.00,,,0.00,Wunderground v.1.13,2013-06-04 00:00:00,
2013-06-03 20:05:00,68.8,49.9,29.99,South,169,2.0,2.0,51,0.00,,,0.00,Wunderground v.1.13,2013-06-04 00:05:00,
2013-06-03 20:10:00,68.4,49.0,29.99,NNW,335,2.0,13.0,50,0.00,,,0.00,Wunderground v.1.13,2013-06-04 00:10:00,
2013-06-03 20:20:00,68.6,48.7,30.00,SSW,203,1.0,1.0,49,0.00,,,0.00,Wunderground v.1.13,2013-06-04 00:20:00,
2013-06-03 20:25:00,68.8,49.4,30.00,SW,230,1.0,13.0,50,0.00,,,0.00,Wunderground v.1.13,2013-06-04 00:25:00,
2013-06-03 20:30:00,68.6,48.7,30.00,SSW,212,2.0,2.0,49,0.00,,,0.00,Wunderground v.1.13,2013-06-04 00:30:00,
2013-06-03 20:35:00,68.3,48.4,30.00,WNW,299,2.0,13.0,49,0.00,,,0.00,Wunderground v.1.13,2013-06-04 00:35:00,
2013-06-03 20:40:00,67.9,48.0,30.00,WSW,243,1.0,1.0,49,0.00,,,0.00,Wunderground v.1.13,2013-06-04 00:40:00,
2013-06-03 20:45:00,67.6,47.8,30.00,WSW,258,1.0,13.0,49,0.00,,,0.00,Wunderground v.1.13,2013-06-04 00:45:00,
2013-06-03 20:55:00,67.1,47.8,30.00,WSW,241,1.0,13.0,50,0.00,,,0.00,Wunderground v.1.13,2013-06-04 00:55:00,
2013-06-03 21:00:00,66.9,48.2,30.00,WNW,285,1.0,13.0,51,0.00,,,0.00,Wunderground v.1.13,2013-06-04 01:00:00,
2013-06-03 21:05:00,66.9,47.6,30.01,WSW,244,1.0,13.0,50,0.00,,,0.00,Wunderground v.1.13,2013-06-04 01:05:00,
2013-06-03 21:10:00,66.8,48.1,30.01,SW,229,1.0,1.0,51,0.00,,,0.00,Wunderground v.1.13,2013-06-04 01:10:00,
2013-06-03 21:15:00,66.6,47.9,30.01,WSW,241,0.0,13.0,51,0.00,,,0.00,Wunderground v.1.13,2013-06-04 01:15:00,
2013-06-03 21:20:00,66.4,47.7,30.01,WSW,257,0.0,13.0,51,0.00,,,0.00,Wunderground v.1.13,2013-06-04 01:20:00,
2013-06-03 21:25:00,66.3,48.1,30.01,WSW,256,0.0,13.0,52,0.00,,,0.00,Wunderground v.1.13,2013-06-04 01:25:00,
2013-06-03 21:30:00,66.3,48.7,30.02,WSW,257,0.0,13.0,53,0.00,,,0.00,Wunderground v.1.13,2013-06-04 01:30:00,
2013-06-03 21:35:00,66.1,48.5,30.02,WSW,257,0.0,13.0,53,0.00,,,0.00,Wunderground v.1.13,2013-06-04 01:35:00,
2013-06-03 21:40:00,66.0,48.4,30.02,WSW,257,0.0,13.0,53,0.00,,,0.00,Wunderground v.1.13,2013-06-04 01:40:00,
2013-06-03 21:45:00,66.0,48.4,30.02,WSW,258,0.0,13.0,53,0.00,,,0.00,Wunderground v.1.13,2013-06-04 01:45:00,
2013-06-03 21:55:00,65.6,48.0,30.02,WSW,254,0.0,13.0,53,0.00,,,0.00,Wunderground v.1.13,2013-06-04 01:55:00,
2013-06-03 22:00:00,65.6,48.0,30.02,WSW,256,0.0,13.0,53,0.00,,,0.00,Wunderground v.1.13,2013-06-04 02:00:00,
2013-06-03 22:05:00,65.5,48.4,30.03,WSW,257,0.0,13.0,54,0.00,,,0.00,Wunderground v.1.13,2013-06-04 02:05:00,
2013-06-03 22:10:00,65.5,48.9,30.03,WSW,257,0.0,13.0,55,0.00,,,0.00,Wunderground v.1.13,2013-06-04 02:10:00,
2013-06-03 22:15:00,65.3,48.7,30.03,WSW,253,0.0,13.0,55,0.00,,,0.00,Wunderground v.1.13,2013-06-04 02:15:00,
2013-06-03 22:20:00,65.2,49.6,30.03,WSW,253,0.0,13.0,57,0.00,,,0.00,Wunderground v.1.13,2013-06-04 02:20:00,
2013-06-03 22:30:00,64.8,49.7,30.03,WSW,254,0.0,13.0,58,0.00,,,0.00,Wunderground v.1.13,2013-06-04 02:30:00,
2013-06-03 22:35:00,64.7,49.1,30.03,WSW,254,0.0,13.0,57,0.00,,,0.00,Wunderground v.1.13,2013-06-04 02:35:00,
2013-06-03 22:40:00,64.5,48.9,30.03,WSW,253,0.0,13.0,57,0.00,,,0.00,Wunderground v.1.13,2013-06-04 02:40:00,
2013-06-03 22:45:00,64.3,48.3,30.03,WSW,254,0.0,13.0,56,0.00,,,0.00,Wunderground v.1.13,2013-06-04 02:45:00,
2013-06-03 22:50:00,64.2,48.2,30.04,WSW,256,0.0,13.0,56,0.00,,,0.00,Wunderground v.1.13,2013-06-04 02:50:00,
2013-06-03 23:00:00,64.0,48.5,30.04,WSW,256,0.0,13.0,57,0.00,,,0.00,Wunderground v.1.13,2013-06-04 03:00:00,
2013-06-03 23:05:00,63.9,48.8,30.04,WSW,258,0.0,13.0,58,0.00,,,0.00,Wunderground v.1.13,2013-06-04 03:05:00,
2013-06-03 23:10:00,63.9,48.8,30.04,West,260,0.0,13.0,58,0.00,,,0.00,Wunderground v.1.13,2013-06-04 03:10:00,
2013-06-03 23:15:00,63.7,49.5,30.04,West,261,0.0,13.0,60,0.00,,,0.00,Wunderground v.1.13,2013-06-04 03:15:00,
2013-06-03 23:20:00,63.5,49.8,30.04,West,268,0.0,13.0,61,0.00,,,0.00,Wunderground v.1.13,2013-06-04 03:20:00,
2013-06-03 23:30:00,63.2,48.6,30.04,West,275,0.0,13.0,59,0.00,,,0.00,Wunderground v.1.13,2013-06-04 03:30:00,
2013-06-03 23:35:00,63.2,49.1,30.04,WNW,296,0.0,13.0,60,0.00,,,0.00,Wunderground v.1.13,2013-06-04 03:35:00,
2013-06-03 23:40:00,63.1,48.5,30.04,WNW,296,0.0,13.0,59,0.00,,,0.00,Wunderground v.1.13,2013-06-04 03:40:00,
2013-06-03 23:45:00,62.9,48.3,30.04,WNW,285,0.0,13.0,59,0.00,,,0.00,Wunderground v.1.13,2013-06-04 03:45:00,
2013-06-03 23:50:00,62.7,48.6,30.04,WNW,285,0.0,13.0,60,0.00,,,0.00,Wunderground v.1.13,2013-06-04 03:50:00,
2013-06-03 23:55:00,62.7,48.6,30.04,WNW,285,0.0,13.0,60,0.00,,,0.00,Wunderground v.1.13,2013-06-04 03:55:00,